Time;durP1;ratioP1;P1;durP2;ratioP2;P2;SDS_P1;SDS_P2;PMS_P1;PMS_P2;Temp;Humidity;BMP_temperature;BMP_pressure;BME280_temperature;BME280_humidity;BME280_pressure;Samples;Min_cycle;Max_cycle;Signal;HPM_P1;HPM_P2
2020/12/11 00:00:54;;;;;;;50.33;32.87;;;2.60;99.90;;;2.66;84.87;99897.38;5072202;28;20041;-78
2020/12/11 00:03:22;;;;;;;53.50;34.17;;;2.70;99.90;;;2.67;84.90;99902.63;5072002;28;20040;-80
2020/12/11 00:05:50;;;;;;;52.80;33.37;;;2.70;99.90;;;2.14;84.28;99798.50;5072235;28;20064;-79
2020/12/11 00:08:17;;;;;;;49.20;32.63;;;2.70;99.90;;;2.42;84.85;99879.72;5071940;28;20059;-79
2020/12/11 00:10:47;;;;;;;58.13;33.28;;;2.60;99.90;;;2.60;85.00;99902.53;5072486;28;20049;-80
2020/12/11 00:13:15;;;;;;;49.70;33.80;;;2.60;99.90;;;2.31;84.96;99860.44;5070572;28;20091;-80
2020/12/11 00:15:42;;;;;;;59.87;35.93;;;2.60;99.90;;;2.23;84.70;99833.41;5072038;28;20048;-79
2020/12/11 00:18:11;;;;;;;53.80;34.07;;;2.60;99.90;;;2.58;85.24;99899.03;5071576;28;20067;-79
2020/12/11 00:20:40;;;;;;;51.67;34.43;;;2.60;99.90;;;2.38;84.94;99861.41;5070616;28;20440;-80
2020/12/11 00:23:08;;;;;;;52.83;36.37;;;2.60;99.90;;;2.40;84.99;99875.34;5071896;28;20057;-80
2020/12/11 00:25:35;;;;;;;56.20;35.17;;;2.60;99.90;;;2.54;84.94;99881.59;5070574;28;20057;-79
2020/12/11 00:28:03;;;;;;;54.50;35.70;;;2.60;99.90;;;2.50;85.14;99879.78;5072031;28;20467;-79
2020/12/11 00:30:30;;;;;;;56.93;36.73;;;2.60;99.90;;;2.50;85.26;99869.34;5071970;28;20055;-80
2020/12/11 00:32:58;;;;;;;54.50;36.50;;;2.60;99.90;;;2.62;84.93;99885.16;5071689;28;20036;-79
2020/12/11 00:35:26;;;;;;;61.87;36.73;;;2.60;99.90;;;2.41;84.85;99831.00;5071599;28;20506;-79
2020/12/11 00:37:56;;;;;;;55.25;36.50;;;2.70;99.90;;;2.50;85.11;99870.25;5071699;28;20045;-79
2020/12/11 00:40:24;;;;;;;62.60;38.83;;;2.60;99.90;;;2.41;85.23;99867.53;5070481;28;20094;-78
2020/12/11 00:43:08;;;;;;;58.40;37.17;;;2.50;99.90;;;2.50;85.81;99851.97;5072232;28;20040;-79
2020/12/11 00:45:35;;;;;;;58.00;36.80;;;2.50;99.90;;;2.55;84.78;99850.31;5075323;28;20086;-79
2020/12/11 00:48:03;;;;;;;52.67;35.77;;;2.60;99.90;;;2.59;85.22;99838.16;5075530;28;20117;-79
2020/12/11 00:50:31;;;;;;;54.00;35.30;;;2.60;99.90;;;2.53;84.59;99836.38;5073908;28;20094;-79
2020/12/11 00:52:58;;;;;;;57.80;36.57;;;2.60;99.90;;;2.49;84.75;99831.97;5075213;28;20052;-78
2020/12/11 00:55:26;;;;;;;58.43;37.47;;;2.60;99.90;;;2.53;84.64;99830.28;5073778;28;20052;-79
2020/12/11 00:57:53;;;;;;;59.40;37.40;;;2.60;99.90;;;2.36;84.97;99809.19;5075328;28;20144;-79
2020/12/11 01:00:21;;;;;;;56.50;37.13;;;2.50;99.90;;;2.27;85.53;99814.31;5075301;28;20118;-79
2020/12/11 01:02:48;;;;;;;59.07;37.30;;;2.40;99.90;;;2.26;85.58;99788.22;5074946;28;20082;-78
2020/12/11 01:05:16;;;;;;;62.17;37.27;;;2.40;99.90;;;1.90;85.64;99728.69;5075021;28;20563;-79
2020/12/11 01:07:44;;;;;;;62.27;39.00;;;2.30;99.90;;;2.12;85.69;99748.06;5074929;28;20135;-80
2020/12/11 01:10:11;;;;;;;56.33;36.93;;;2.40;99.90;;;2.34;85.80;99787.44;5075109;28;20036;-79
2020/12/11 01:12:38;;;;;;;51.67;34.37;;;2.40;99.90;;;1.70;85.48;99688.53;5074897;28;20123;-79
2020/12/11 01:15:06;;;;;;;59.80;36.83;;;2.40;99.90;;;1.49;85.48;99628.34;5074797;28;20040;-79
2020/12/11 01:17:33;;;;;;;58.60;39.20;;;2.40;99.90;;;2.24;85.61;99756.91;5075015;28;20114;-78
2020/12/11 01:20:01;;;;;;;59.30;39.00;;;2.40;99.90;;;2.44;85.46;99750.16;5074778;28;20394;-79
2020/12/11 01:22:28;;;;;;;59.37;38.00;;;2.50;99.90;;;2.21;85.85;99756.88;5074902;28;20057;-78
2020/12/11 01:24:57;;;;;;;58.07;37.63;;;2.30;99.90;;;2.31;85.72;99743.06;5074669;28;20044;-79
2020/12/11 01:27:24;;;;;;;57.53;37.83;;;2.40;99.90;;;1.92;85.88;99681.81;5074641;28;20112;-78
2020/12/11 01:29:52;;;;;;;57.67;38.10;;;2.30;99.90;;;2.15;86.26;99732.47;5074598;28;20090;-79
2020/12/11 01:32:19;;;;;;;62.93;39.73;;;2.20;99.90;;;2.12;86.07;99722.88;5074704;28;20481;-79
2020/12/11 01:34:47;;;;;;;57.07;36.00;;;2.20;99.90;;;1.94;86.15;99691.38;5074739;28;20070;-80
2020/12/11 01:37:14;;;;;;;59.57;38.50;;;2.20;99.90;;;2.15;86.27;99703.78;5074431;28;20567;-79
2020/12/11 01:39:42;;;;;;;57.80;38.00;;;2.20;99.90;;;2.05;86.49;99705.44;5074423;28;20498;-78
2020/12/11 01:42:12;;;;;;;56.70;37.87;;;2.20;99.90;;;2.02;86.75;99707.09;5074246;28;20120;-78
2020/12/11 01:44:48;;;;;;;62.65;38.60;;;2.10;99.90;;;2.06;86.78;99707.16;5074636;28;20044;-78
2020/12/11 01:47:16;;;;;;;57.43;37.30;;;2.10;99.90;;;1.95;86.95;99697.47;5073491;28;20551;-78
2020/12/11 01:49:45;;;;;;;63.30;39.03;;;2.00;99.90;;;1.83;87.13;99693.88;5074190;28;20548;-79
2020/12/11 01:52:14;;;;;;;62.80;40.03;;;2.00;99.90;;;1.92;87.17;99693.09;5074185;28;20044;-78
2020/12/11 01:54:42;;;;;;;63.13;38.90;;;2.00;99.90;;;1.97;86.99;99693.16;5073772;28;20119;-79
2020/12/11 01:57:22;;;;;;;59.77;39.53;;;2.10;99.90;;;1.99;86.84;99710.56;5074122;28;20089;-79
2020/12/11 01:59:53;;;;;;;61.42;37.63;;;2.10;99.90;;;2.07;86.59;99706.28;5074089;28;20498;-78
2020/12/11 02:02:22;;;;;;;60.20;37.63;;;2.20;99.90;;;1.87;86.79;99733.88;5074003;28;20553;-79
2020/12/11 02:04:50;;;;;;;61.77;39.53;;;2.10;99.90;;;1.70;87.11;99645.06;5072885;28;20497;-78
2020/12/11 02:07:17;;;;;;;58.90;37.47;;;2.10;99.90;;;2.09;86.68;99694.16;5073870;28;20510;-78
2020/12/11 02:09:45;;;;;;;60.70;37.87;;;2.20;99.90;;;2.17;86.83;99709.91;5073902;28;20238;-78
2020/12/11 02:12:13;;;;;;;58.00;37.83;;;2.20;99.90;;;2.26;86.46;99699.56;5072654;28;20489;-79
2020/12/11 02:14:40;;;;;;;58.70;37.37;;;2.30;99.90;;;2.21;86.52;99696.88;5073780;28;20119;-78
2020/12/11 02:17:08;;;;;;;55.80;35.93;;;2.30;99.90;;;2.28;86.31;99701.31;5073677;28;20122;-79
2020/12/11 02:19:35;;;;;;;54.17;36.67;;;2.40;99.90;;;2.28;86.37;99684.78;5073619;28;20055;-79
2020/12/11 02:22:05;;;;;;;61.70;37.83;;;2.40;99.90;;;2.32;86.41;99687.41;5073508;28;20067;-79
2020/12/11 02:24:34;;;;;;;56.78;33.88;;;2.40;99.90;;;2.18;86.01;99686.44;5073607;28;20033;-79
2020/12/11 02:27:03;;;;;;;57.83;37.43;;;2.30;99.90;;;2.04;85.94;99643.69;5073784;28;20044;-78
2020/12/11 02:29:31;;;;;;;59.23;37.73;;;2.30;99.90;;;2.30;86.21;99678.72;5073654;28;20106;-78
2020/12/11 02:31:58;;;;;;;55.53;36.17;;;2.40;99.90;;;2.19;85.85;99641.22;5073687;28;20290;-78
2020/12/11 02:34:26;;;;;;;53.60;36.23;;;2.30;99.90;;;2.06;86.47;99665.44;5073618;28;20040;-77
2020/12/11 02:37:00;;;;;;;57.63;35.47;;;2.20;99.90;;;2.02;86.26;99621.94;5073563;28;20127;-78
2020/12/11 02:39:28;;;;;;;54.63;35.87;;;2.30;99.90;;;2.15;86.18;99655.09;5073562;28;20417;-77
2020/12/11 02:41:56;;;;;;;53.00;36.00;;;2.20;99.90;;;2.19;86.16;99650.81;5073397;28;20071;-78
2020/12/11 02:44:24;;;;;;;61.47;36.83;;;2.20;99.90;;;2.12;85.88;99646.38;5073149;28;20498;-78
2020/12/11 02:46:51;;;;;;;54.17;36.70;;;2.20;99.90;;;2.12;86.25;99649.88;5072047;28;20045;-78
2020/12/11 02:49:19;;;;;;;58.33;37.13;;;2.20;99.90;;;2.07;86.15;99632.44;5073007;28;20071;-78
2020/12/11 02:51:46;;;;;;;60.23;36.93;;;2.20;99.90;;;1.98;86.34;99635.81;5073235;28;20071;-77
2020/12/11 02:54:14;;;;;;;60.53;38.00;;;2.10;99.90;;;1.47;86.31;99513.69;5072912;28;20048;-79
2020/12/11 02:56:42;;;;;;;58.53;37.37;;;2.20;99.90;;;1.96;86.55;99608.84;5071826;28;20127;-79
2020/12/11 02:59:09;;;;;;;56.60;36.80;;;2.20;99.90;;;1.96;86.36;99587.13;5073139;28;20058;-78
2020/12/11 03:01:37;;;;;;;58.30;38.03;;;2.20;99.90;;;2.09;86.46;99597.66;5072679;28;20065;-78
2020/12/11 03:04:04;;;;;;;57.73;36.77;;;2.10;99.90;;;2.09;86.46;99582.03;5073010;28;20076;-78
2020/12/11 03:06:32;;;;;;;55.57;36.63;;;2.20;99.90;;;1.91;86.60;99581.88;5072040;28;20052;-78
2020/12/11 03:09:00;;;;;;;56.10;36.83;;;2.00;99.90;;;1.94;86.38;99581.91;5072973;28;20497;-78
2020/12/11 03:11:28;;;;;;;57.80;35.67;;;2.00;99.90;;;1.50;86.57;99484.22;5072842;28;20119;-78
2020/12/11 03:13:57;;;;;;;56.00;37.33;;;2.00;99.90;;;2.01;86.25;99575.91;5072569;28;20048;-78
2020/12/11 03:16:24;;;;;;;51.83;34.60;;;2.00;99.90;;;1.91;86.07;99560.16;5072776;28;20127;-78
2020/12/11 03:18:52;;;;;;;56.67;36.07;;;2.00;99.90;;;1.88;86.65;99566.19;5071482;28;20143;-78
2020/12/11 03:21:19;;;;;;;55.10;34.77;;;2.00;99.90;;;1.93;86.28;99556.72;5072401;28;20112;-78
2020/12/11 03:23:46;;;;;;;53.77;35.33;;;2.00;99.90;;;2.04;86.24;99547.22;5072764;28;20045;-78
2020/12/11 03:26:14;;;;;;;59.70;36.13;;;2.10;99.90;;;1.93;86.23;99546.28;5072383;28;20133;-78
2020/12/11 03:28:41;;;;;;;52.50;33.87;;;2.00;99.90;;;1.93;86.20;99541.06;5072378;28;20040;-78
2020/12/11 03:31:09;;;;;;;49.70;32.10;;;2.00;99.90;;;1.95;86.15;99547.16;5072343;28;20469;-77
2020/12/11 03:33:37;;;;;;;51.93;33.57;;;2.10;99.90;;;1.97;85.98;99537.63;5072561;28;20440;-79
2020/12/11 03:36:04;;;;;;;54.53;35.80;;;2.10;99.90;;;2.01;85.88;99528.97;5072524;28;20048;-78
2020/12/11 03:38:31;;;;;;;53.53;34.90;;;2.10;99.90;;;1.84;85.92;99507.09;5072806;28;20153;-79
2020/12/11 03:40:59;;;;;;;53.80;35.17;;;2.10;99.90;;;2.05;85.83;99509.00;5072220;28;20043;-77
2020/12/11 03:43:26;;;;;;;54.07;34.67;;;2.10;99.90;;;1.97;86.04;99527.19;5072067;28;20490;-79
2020/12/11 03:45:54;;;;;;;49.23;33.70;;;2.10;99.90;;;2.07;85.92;99512.50;5072165;28;20044;-78
2020/12/11 03:48:23;;;;;;;53.20;35.50;;;2.10;99.90;;;2.08;85.75;99507.28;5072393;28;20051;-78
2020/12/11 03:50:50;;;;;;;49.97;33.43;;;2.10;99.90;;;2.08;85.62;99506.41;5072391;28;20079;-78
2020/12/11 03:53:17;;;;;;;53.20;34.40;;;2.20;99.90;;;1.90;85.30;99460.22;5072061;28;20048;-78
2020/12/11 03:55:45;;;;;;;51.67;33.77;;;2.20;99.90;;;1.90;85.46;99459.38;5072320;28;20120;-78
2020/12/11 03:58:12;;;;;;;51.87;32.97;;;2.20;99.90;;;2.06;85.39;99469.03;5072218;28;20049;-78
2020/12/11 04:00:39;;;;;;;49.47;33.73;;;2.20;99.90;;;1.96;85.59;99468.09;5070977;28;20139;-78
2020/12/11 04:03:06;;;;;;;49.37;32.57;;;2.10;99.90;;;1.95;85.72;99458.53;5071866;28;20068;-77
2020/12/11 04:05:35;;;;;;;54.07;32.77;;;2.10;99.90;;;1.79;85.70;99436.72;5071960;28;20052;-78
2020/12/11 04:08:02;;;;;;;53.57;33.93;;;2.10;99.90;;;1.98;85.57;99474.19;5072466;28;20383;-76
2020/12/11 04:10:29;;;;;;;51.73;33.30;;;2.10;99.90;;;2.03;85.87;99467.28;5072081;28;20072;-78
2020/12/11 04:12:57;;;;;;;50.30;34.60;;;2.10;99.90;;;2.09;85.51;99463.84;5072103;28;20048;-79
2020/12/11 04:15:24;;;;;;;53.23;34.13;;;2.20;99.90;;;2.12;84.92;99476.88;5071789;28;20071;-78
2020/12/11 04:17:52;;;;;;;49.43;33.17;;;2.20;99.90;;;2.10;85.03;99422.13;5073174;28;20055;-78
2020/12/11 04:20:19;;;;;;;51.43;33.00;;;2.20;99.90;;;1.88;85.22;99415.03;5076460;28;20080;-78
2020/12/11 04:22:49;;;;;;;47.40;33.17;;;2.20;99.90;;;1.86;85.31;99377.66;5075700;28;20134;-78
2020/12/11 04:25:17;;;;;;;48.53;32.67;;;2.20;99.90;;;2.20;85.20;99416.13;5075711;28;20036;-78
2020/12/11 04:27:44;;;;;;;51.13;34.13;;;2.30;99.90;;;2.16;85.11;99405.66;5076044;28;20047;-78
2020/12/11 04:30:12;;;;;;;48.57;32.47;;;2.30;99.90;;;2.13;85.03;99403.88;5074660;28;20044;-79
2020/12/11 04:32:39;;;;;;;50.37;32.80;;;2.20;99.90;;;2.14;84.99;99399.56;5075973;28;20048;-78
2020/12/11 04:35:06;;;;;;;48.07;32.40;;;2.30;99.90;;;2.11;84.87;99392.56;5075903;28;20122;-77
2020/12/11 04:37:34;;;;;;;51.47;33.23;;;2.30;99.90;;;2.11;85.00;99409.97;5075570;28;20512;-80
2020/12/11 04:40:02;;;;;;;50.10;31.90;;;2.20;99.90;;;1.76;84.58;99316.78;5075796;28;20076;-79
2020/12/11 04:42:35;;;;;;;47.23;30.53;;;2.20;99.90;;;1.27;85.17;99235.78;5075851;28;20037;-79
2020/12/11 04:45:04;;;;;;;50.17;32.93;;;2.20;99.90;;;1.94;85.11;99336.88;5074112;28;20051;-79
2020/12/11 04:47:31;;;;;;;47.00;31.83;;;2.30;99.90;;;2.24;85.08;99381.38;5075950;28;20044;-80
2020/12/11 04:49:59;;;;;;;45.53;31.30;;;2.30;99.90;;;2.25;84.65;99382.22;5075281;28;20050;-79
2020/12/11 04:52:31;;;;;;;44.37;29.23;;;2.30;99.90;;;1.92;84.66;99322.97;5075245;28;20044;-78
2020/12/11 04:55:00;;;;;;;49.23;33.03;;;2.30;99.90;;;2.23;85.03;99365.69;5075249;28;20460;-78
2020/12/11 04:57:32;;;;;;;48.60;31.73;;;2.30;99.90;;;2.00;85.11;99323.88;5075165;28;20059;-79
2020/12/11 05:00:00;;;;;;;44.23;29.73;;;2.30;99.90;;;2.16;85.08;99370.03;5075153;28;20482;-79
2020/12/11 05:02:28;;;;;;;47.00;31.00;;;2.30;99.90;;;2.24;84.95;99349.19;5074871;28;20500;-78
2020/12/11 05:04:58;;;;;;;44.13;30.53;;;2.30;99.90;;;2.27;85.32;99337.03;5075005;28;20102;-78
2020/12/11 05:07:28;;;;;;;50.77;31.57;;;2.40;99.90;;;2.26;84.62;99355.28;5075259;28;20151;-79
2020/12/11 05:09:56;;;;;;;45.58;29.60;;;2.30;99.90;;;2.32;84.62;99342.28;5075527;28;20044;-78
2020/12/11 05:12:25;;;;;;;47.83;31.03;;;2.40;99.90;;;2.34;85.03;99336.16;5075639;28;20475;-80
2020/12/11 05:14:56;;;;;;;47.00;31.63;;;2.50;99.90;;;2.29;84.80;99296.19;5075409;28;20565;-78
2020/12/11 05:17:29;;;;;;;47.23;33.07;;;2.50;99.90;;;2.27;84.94;99304.84;5074775;28;20037;-79
2020/12/11 05:19:58;;;;;;;47.73;31.17;;;2.50;99.90;;;2.49;84.63;99314.50;5073769;28;20147;-78
2020/12/11 05:22:27;;;;;;;44.40;29.57;;;2.50;99.90;;;2.38;85.06;99321.44;5074115;28;20048;-78
2020/12/11 05:24:56;;;;;;;46.90;31.33;;;2.50;99.90;;;2.45;84.91;99305.81;5073565;28;20045;-80
2020/12/11 05:27:34;;;;;;;45.33;30.07;;;2.50;99.90;;;2.45;84.76;99323.19;5073571;28;20051;-78
2020/12/11 05:30:21;;;;;;;45.97;32.03;;;2.50;99.90;;;2.49;84.87;99317.09;5073113;28;20056;-77
2020/12/11 05:32:51;;;;;;;44.43;29.50;;;2.50;99.90;;;2.50;84.87;99309.28;5073451;28;20079;-77
2020/12/11 05:35:34;;;;;;;45.08;30.42;;;2.60;99.90;;;2.55;85.04;99312.78;5073860;28;20090;-78
2020/12/11 05:38:04;;;;;;;45.80;29.60;;;2.60;99.90;;;2.63;84.43;99321.47;5072364;28;20515;-77
2020/12/11 05:40:34;;;;;;;46.92;31.00;;;2.70;99.90;;;2.57;84.62;99305.84;5073431;28;20388;-79
2020/12/11 05:43:09;;;;;;;;;;;2.70;99.90;;;2.56;84.64;99309.28;5074104;28;20048;-78
2020/12/11 05:45:37;;;;;;;46.53;31.00;;;2.70;99.90;;;2.56;84.54;99319.72;5073534;28;19924;-79
2020/12/11 05:48:06;;;;;;;45.47;28.97;;;2.70;99.90;;;2.52;84.50;99298.84;5073216;28;20555;-78
2020/12/11 05:50:34;;;;;;;47.33;30.67;;;2.60;99.90;;;2.62;84.90;99304.09;5073224;28;20044;-78
2020/12/11 05:53:02;;;;;;;45.67;31.10;;;2.70;99.90;;;2.35;84.82;99250.97;5073150;28;20041;-79
2020/12/11 05:55:29;;;;;;;43.17;30.90;;;2.70;99.90;;;2.79;84.23;99279.78;5073062;28;20074;-78
2020/12/11 05:57:58;;;;;;;47.03;29.60;;;2.80;99.90;;;2.58;84.32;99285.81;5073030;28;20072;-80
2020/12/11 06:00:27;;;;;;;42.90;29.63;;;2.70;99.90;;;2.55;85.28;99268.44;5072000;28;20080;-78
2020/12/11 06:02:55;;;;;;;44.80;29.67;;;2.70;99.90;;;2.41;85.09;99231.00;5072896;28;20045;-78
2020/12/11 06:05:25;;;;;;;43.20;29.70;;;2.70;99.90;;;2.27;84.99;99204.03;5071911;28;20100;-79
2020/12/11 06:07:53;;;;;;;45.87;29.80;;;2.70;99.90;;;0.38;85.17;98879.81;5072871;28;20515;-77
2020/12/11 06:10:23;;;;;;;44.33;29.50;;;2.80;99.90;;;2.72;85.89;99252.78;5072885;28;20044;-77
2020/12/11 06:12:51;;;;;;;43.63;30.10;;;2.80;99.90;;;2.68;85.73;99258.88;5073144;28;20090;-78
2020/12/11 06:15:30;;;;;;;42.43;30.00;;;2.80;99.90;;;2.61;85.77;99239.72;5072950;28;20118;-78
2020/12/11 06:18:04;;;;;;;44.47;29.50;;;2.70;99.90;;;2.64;86.08;99254.50;5073034;28;20123;-79
2020/12/11 06:20:32;;;;;;;43.90;29.63;;;2.70;99.90;;;2.79;86.14;99249.28;5072780;28;20037;-79
2020/12/11 06:23:25;;;;;;;44.37;28.83;;;2.80;99.90;;;2.40;85.47;99224.03;5050988;28;632493;-79
2020/12/11 06:25:55;;;;;;;48.43;32.17;;;2.80;99.90;;;2.70;85.91;99218.84;5066051;28;20091;-78
2020/12/11 06:28:44;;;;;;;43.67;29.67;;;2.90;99.90;;;2.70;86.07;99246.69;5073496;28;20075;-80
2020/12/11 06:31:14;;;;;;;47.23;30.67;;;2.80;99.90;;;2.82;85.64;99235.38;5072426;28;20048;-78
2020/12/11 06:33:46;;;;;;;43.60;29.27;;;2.90;99.90;;;2.80;85.55;99245.81;5073776;28;20052;-81
2020/12/11 06:36:14;;;;;;;44.37;28.93;;;2.90;99.90;;;2.74;85.42;99204.94;5072398;28;20102;-78
2020/12/11 06:38:47;;;;;;;39.93;27.90;;;2.90;99.90;;;2.89;85.71;99226.66;5073553;28;20071;-78
2020/12/11 06:41:35;;;;;;;42.63;29.17;;;2.90;99.90;;;0.59;85.61;98895.47;5071060;28;20049;-79
2020/12/11 06:44:17;;;;;;;46.03;31.30;;;2.90;99.90;;;2.61;85.77;99192.75;5073488;28;20102;-77
2020/12/11 06:47:04;;;;;;;44.80;30.07;;;2.90;99.90;;;2.60;85.79;99179.69;5073169;28;20033;-78
2020/12/11 06:49:32;;;;;;;39.23;28.67;;;2.90;99.90;;;2.92;85.27;99224.94;5073876;28;20051;-78
2020/12/11 06:52:14;;;;;;;43.50;30.53;;;2.90;99.90;;;2.93;85.33;99221.44;5073277;28;20140;-78
2020/12/11 06:54:53;;;;;;;39.73;27.93;;;3.00;99.90;;;2.95;85.57;99235.38;5073273;28;20045;-77
2020/12/11 06:57:42;;;;;;;43.10;30.93;;;3.00;99.90;;;3.00;85.17;99217.94;5073465;28;20048;-76
2020/12/11 07:00:37;;;;;;;44.17;29.57;;;3.10;99.90;;;3.07;85.11;99219.72;5072914;28;20493;-77
2020/12/11 07:03:21;;;;;;;43.00;27.40;;;3.10;99.90;;;3.15;85.01;99232.75;5072541;28;20060;-78
2020/12/11 07:06:12;;;;;;;43.93;29.00;;;3.20;99.90;;;2.84;85.11;99178.81;5072804;28;20072;-78
2020/12/11 07:08:40;;;;;;;41.83;29.23;;;3.10;99.90;;;3.04;85.14;99203.19;5073025;28;20051;-77
2020/12/11 07:11:10;;;;;;;44.97;29.90;;;3.10;99.90;;;3.05;85.19;99203.16;5072521;28;20508;-78
2020/12/11 07:13:46;;;;;;;;;;;3.10;99.90;;;2.87;86.19;99212.75;5073375;28;20059;-78
2020/12/11 07:16:14;;;;;;;43.37;29.43;;;3.10;99.90;;;2.88;87.14;99193.63;5071502;28;20429;-78
2020/12/11 07:18:43;;;;;;;48.50;32.27;;;3.00;99.90;;;2.66;87.89;99182.31;5072769;28;20044;-77
2020/12/11 07:21:11;;;;;;;50.17;32.93;;;2.90;99.90;;;2.59;88.84;99171.00;5072722;28;20044;-78
2020/12/11 07:23:39;;;;;;;51.47;32.53;;;2.90;99.90;;;2.60;89.90;99177.97;5071987;28;20053;-78
2020/12/11 07:26:07;;;;;;;48.40;32.10;;;2.80;99.90;;;2.70;90.17;99192.75;5072625;28;20053;-78
2020/12/11 07:28:35;;;;;;;51.87;32.30;;;2.80;99.90;;;2.63;90.05;99182.31;5072651;28;20090;-78
2020/12/11 07:31:03;;;;;;;52.53;31.80;;;2.70;99.90;;;2.60;90.52;99177.09;5072338;28;20383;-78
2020/12/11 07:33:33;;;;;;;49.90;33.20;;;2.70;99.90;;;2.72;90.47;99177.97;5072637;28;20040;-79
2020/12/11 07:36:03;;;;;;;49.00;33.33;;;2.70;99.90;;;2.71;90.26;99191.00;5072316;28;20037;-79
2020/12/11 07:38:32;;;;;;;;;;;2.80;99.90;;;1.93;90.94;99056.25;5073013;28;20044;-79
2020/12/11 07:41:03;;;;;;;56.37;33.00;;;2.80;99.90;;;2.60;91.29;99170.16;5072300;28;20011;-77
2020/12/11 07:43:31;;;;;;;52.40;34.40;;;2.70;99.90;;;2.47;91.48;99121.47;5071034;28;20139;-75
2020/12/11 07:45:58;;;;;;;49.83;32.53;;;2.70;99.90;;;2.77;90.93;99166.66;5072378;28;20068;-74
2020/12/11 07:48:26;;;;;;;54.17;33.70;;;2.80;99.90;;;2.86;90.62;99169.25;5071051;28;20045;-77
2020/12/11 07:51:02;;;;;;;50.20;32.83;;;2.90;99.90;;;2.71;90.89;99171.00;5072391;28;20127;-73
2020/12/11 07:53:29;;;;;;;49.00;33.10;;;2.80;99.90;;;2.87;90.71;99163.16;5071807;28;20048;-71
2020/12/11 07:55:57;;;;;;;51.23;34.10;;;2.90;99.90;;;2.92;91.21;99162.28;5072043;28;20552;-78
2020/12/11 07:58:26;;;;;;;49.17;32.77;;;2.90;99.90;;;2.52;91.79;99139.69;5072268;28;20045;-77
2020/12/11 08:00:53;;;;;;;54.27;34.23;;;2.80;99.90;;;2.75;92.04;99146.63;5072001;28;20064;-79
2020/12/11 08:03:26;;;;;;;51.97;34.87;;;2.80;99.90;;;2.70;92.48;99156.22;5071883;28;20120;-73
2020/12/11 08:05:53;;;;;;;54.63;34.97;;;2.80;99.90;;;2.63;93.07;99141.44;5070896;28;20044;-73
2020/12/11 08:08:27;;;;;;;53.93;35.33;;;2.80;99.90;;;2.68;93.11;99150.13;5072154;28;20446;-75
2020/12/11 08:10:54;;;;;;;56.87;34.83;;;2.80;99.90;;;2.62;93.66;99144.91;5072302;28;20059;-74
2020/12/11 08:13:24;;;;;;;52.63;33.77;;;2.70;99.90;;;2.59;94.21;99139.69;5071814;28;20044;-76
2020/12/11 08:16:01;;;;;;;55.83;36.43;;;2.70;99.90;;;2.79;94.21;99138.81;5071796;28;20044;-74
2020/12/11 08:18:30;;;;;;;53.07;33.63;;;2.80;99.90;;;2.73;93.66;99124.88;5071801;28;20497;-79
2020/12/11 08:21:00;;;;;;;56.37;34.47;;;2.80;99.90;;;2.74;93.86;99131.88;5071707;28;20094;-80
2020/12/11 08:23:40;;;;;;;51.37;34.00;;;2.80;99.90;;;2.80;93.96;99135.31;5071463;28;20060;-78
2020/12/11 08:26:16;;;;;;;53.95;34.13;;;2.90;99.90;;;2.74;93.60;99144.91;5072045;28;20289;-74
2020/12/11 08:28:46;;;;;;;52.00;34.47;;;2.90;99.90;;;2.85;93.85;99124.00;5072065;28;20486;-72
2020/12/11 08:31:25;;;;;;;53.47;35.20;;;2.90;99.90;;;2.85;94.05;99128.34;5070681;28;20048;-73
2020/12/11 08:34:08;;;;;;;53.38;33.95;;;2.90;99.90;;;2.53;93.62;99082.31;5072080;28;20036;-76
2020/12/11 08:36:38;;;;;;;55.20;35.23;;;2.90;99.90;;;2.97;93.85;99134.44;5071678;28;20509;-75
2020/12/11 08:39:17;;;;;;;55.55;35.13;;;2.90;99.90;;;2.96;94.38;99116.16;5071929;28;20052;-78
2020/12/11 08:45:12;;;;;;;54.70;35.33;;;2.90;99.90;;;2.96;94.66;99124.84;5070500;28;20056;-74
2020/12/11 08:50:30;;;;;;;55.83;35.20;;;3.00;99.90;;;3.01;94.34;99110.03;5070566;28;20040;-75
2020/12/11 08:53:02;;;;;;;53.57;32.93;;;3.10;99.90;;;3.05;94.38;99131.78;5071609;28;20048;-75
2020/12/11 08:55:30;;;;;;;55.73;34.87;;;3.10;99.90;;;3.13;94.34;99119.59;5071982;28;20044;-75
2020/12/11 08:57:57;;;;;;;51.60;35.57;;;3.10;99.90;;;3.17;93.83;99106.53;5071702;28;20044;-74
2020/12/11 09:00:25;;;;;;;51.30;34.50;;;3.20;99.90;;;2.97;94.16;99079.59;5071290;28;20076;-75
2020/12/11 09:02:52;;;;;;;52.07;33.40;;;3.20;99.90;;;3.00;93.87;99095.25;5071627;28;20051;-77
2020/12/11 09:05:24;;;;;;;53.30;35.40;;;3.20;99.90;;;3.10;93.96;99078.69;5073475;28;20044;-76
2020/12/11 09:07:53;;;;;;;48.13;32.13;;;3.20;99.90;;;3.17;94.19;99098.69;5075060;28;20044;-77
2020/12/11 09:10:21;;;;;;;49.70;31.90;;;3.20;99.90;;;2.99;93.69;99061.31;5074810;28;20127;-75
2020/12/11 09:12:51;;;;;;;49.90;32.50;;;3.30;99.90;;;3.32;93.81;99105.59;5075387;28;20128;-72
2020/12/11 09:15:21;;;;;;;47.80;30.92;;;3.30;99.90;;;3.20;93.62;99106.50;5074990;28;20041;-78
2020/12/11 09:17:49;;;;;;;43.35;30.77;;;3.40;99.90;;;3.40;93.43;99104.69;5074957;28;20119;-77
2020/12/11 09:20:18;;;;;;;49.53;32.23;;;3.40;99.90;;;3.32;93.49;99110.81;5074958;28;20553;-76
2020/12/11 09:22:45;;;;;;;43.87;29.90;;;3.40;99.90;;;3.25;93.73;99078.59;5074960;28;20060;-76
2020/12/11 09:25:12;;;;;;;51.33;31.73;;;3.40;99.90;;;2.60;94.03;98991.84;5074965;28;20048;-76
2020/12/11 09:27:40;;;;;;;48.13;31.80;;;3.40;99.90;;;3.41;94.39;99095.09;5075024;28;20044;-77
2020/12/11 09:30:23;;;;;;;46.57;31.10;;;3.40;99.90;;;3.45;94.09;99104.66;5075240;28;20052;-76
2020/12/11 09:32:57;;;;;;;43.87;30.23;;;3.50;99.90;;;3.16;94.52;99068.22;5073804;28;20393;-76
2020/12/11 09:35:27;;;;;;;47.17;31.17;;;3.50;99.90;;;3.28;95.01;99085.56;5074760;28;20068;-77
2020/12/11 09:37:56;;;;;;;46.90;30.57;;;3.40;99.90;;;3.42;95.01;99102.06;5075138;28;20390;-76
2020/12/11 09:40:31;;;;;;;45.83;30.33;;;3.40;99.90;;;3.24;95.27;99069.06;5073717;28;20143;-75
2020/12/11 09:43:32;;;;;;;48.23;31.67;;;3.50;99.90;;;3.35;95.15;99095.09;5074910;28;20041;-77
2020/12/11 09:46:10;;;;;;;54.47;33.80;;;3.50;99.90;;;3.33;95.52;99073.38;5074794;28;20094;-78
2020/12/11 09:48:40;;;;;;;47.07;31.23;;;3.50;99.90;;;3.52;95.46;99088.09;5074432;28;20127;-77
2020/12/11 09:51:18;;;;;;;50.53;32.58;;;3.60;99.90;;;3.47;95.68;99103.78;5074527;28;20048;-76
2020/12/11 09:56:39;;;;;;;45.53;31.03;;;3.50;99.90;;;3.41;95.79;99067.22;5074156;28;20067;-74
2020/12/11 09:59:11;;;;;;;47.63;33.07;;;3.60;99.90;;;3.49;95.98;99083.72;5074088;28;20564;-75
2020/12/11 10:01:52;;;;;;;50.17;32.37;;;3.60;99.90;;;3.48;96.60;99091.59;5074334;28;20072;-75
2020/12/11 10:04:20;;;;;;;48.93;32.33;;;3.50;99.90;;;3.56;96.45;99082.81;5073906;28;20041;-77
2020/12/11 10:06:47;;;;;;;49.70;32.00;;;3.60;99.90;;;3.49;96.73;99082.84;5073933;28;20072;-77
2020/12/11 10:09:15;;;;;;;48.90;31.50;;;3.50;99.90;;;3.52;96.99;99075.03;5074485;28;20059;-77
2020/12/11 10:11:42;;;;;;;49.07;30.07;;;3.60;99.90;;;3.48;97.08;99070.69;5072756;28;20040;-77
2020/12/11 10:14:16;;;;;;;45.77;30.20;;;3.50;99.90;;;3.50;96.88;99079.38;5074082;28;20072;-76
2020/12/11 10:16:45;;;;;;;48.87;31.40;;;3.50;99.90;;;3.33;96.71;99052.47;5072567;28;20052;-77
2020/12/11 10:19:13;;;;;;;46.30;31.47;;;3.60;99.90;;;3.56;97.13;99067.13;5074072;28;20095;-76
2020/12/11 10:21:40;;;;;;;46.13;32.47;;;3.60;99.90;;;3.70;97.03;99069.66;5073720;28;20064;-75
2020/12/11 10:24:08;;;;;;;47.57;30.43;;;3.70;99.90;;;3.64;96.70;99072.31;5033568;28;20042;-76
2020/12/11 10:26:39;;;;;;;44.37;29.80;;;3.70;99.90;;;3.77;96.86;99052.22;5033684;28;20461;-75
2020/12/11 10:29:07;;;;;;;45.03;30.93;;;3.80;99.90;;;3.62;96.50;99054.03;5033896;28;20509;-77
2020/12/11 10:31:34;;;;;;;46.13;30.90;;;3.70;99.90;;;3.71;96.66;99041.78;5032797;28;20041;-76
2020/12/11 10:34:03;;;;;;;42.90;30.40;;;3.70;99.90;;;3.79;96.37;99040.00;5033646;28;20065;-76
2020/12/11 10:36:31;;;;;;;45.57;31.40;;;3.80;99.90;;;3.53;96.59;98995.72;5033574;28;20119;-77
2020/12/11 10:38:59;;;;;;;46.43;32.00;;;3.80;99.90;;;3.73;96.77;99035.69;5034055;28;20045;-76
2020/12/11 10:41:27;;;;;;;44.63;31.10;;;3.80;99.90;;;2.61;96.77;98832.66;5033797;28;20103;-76